createdAt,value
2023-05-12T00:02:06.213Z,0.82
2023-05-12T00:04:35.920Z,1.45
2023-05-12T00:07:06.211Z,0.73
2023-05-12T00:09:34.261Z,1.02
2023-05-12T00:12:03.749Z,0.60
2023-05-12T00:14:31.820Z,0.95
2023-05-12T00:17:01.244Z,0.93
2023-05-12T00:19:29.297Z,1.02
2023-05-12T00:21:57.457Z,0.80
2023-05-12T00:24:25.798Z,1.42
2023-05-12T00:26:54.428Z,0.95
2023-05-12T00:29:22.416Z,0.88
2023-05-12T00:31:50.472Z,0.82
2023-05-12T00:34:19.916Z,1.00
2023-05-12T00:36:47.966Z,0.95
2023-05-12T00:39:16.021Z,0.80
2023-05-12T00:41:44.502Z,0.70
2023-05-12T00:44:12.546Z,0.80
2023-05-12T00:46:40.701Z,1.05
2023-05-12T00:49:08.916Z,0.82
2023-05-12T00:51:38.699Z,0.73
2023-05-12T00:54:06.946Z,0.77
2023-05-12T00:56:39.384Z,0.70
2023-05-12T00:59:07.541Z,1.10
2023-05-12T01:01:36.287Z,1.00
2023-05-12T01:04:04.650Z,0.75
2023-05-12T01:06:39.287Z,0.70
2023-05-12T01:09:09.298Z,0.70
2023-05-12T01:11:37.520Z,1.23
2023-05-12T01:14:06.013Z,0.95
2023-05-12T01:16:39.228Z,1.08
2023-05-12T01:19:10.930Z,0.70
2023-05-12T01:21:39.222Z,0.95
2023-05-12T01:24:10.913Z,0.95
2023-05-12T01:26:40.671Z,0.82
2023-05-12T01:29:09.066Z,0.70
2023-05-12T01:31:37.482Z,0.70
2023-05-12T01:34:05.623Z,0.82
2023-05-12T01:36:33.679Z,1.02
2023-05-12T01:39:01.784Z,0.80
2023-05-12T01:41:29.936Z,0.90
2023-05-12T01:43:59.392Z,0.70
2023-05-12T01:46:27.540Z,0.82
2023-05-12T01:48:55.626Z,0.75
2023-05-12T01:51:23.728Z,0.93
2023-05-12T01:53:51.780Z,0.75
2023-05-12T01:56:20.046Z,0.75
2023-05-12T01:58:48.110Z,0.80
2023-05-12T02:01:17.479Z,0.95
2023-05-12T02:03:45.756Z,0.70
2023-05-12T02:06:14.947Z,0.65
2023-05-12T02:08:43.034Z,0.57
2023-05-12T02:11:11.209Z,0.75
2023-05-12T02:13:39.314Z,0.70
2023-05-12T02:16:08.215Z,0.65
2023-05-12T02:18:37.802Z,0.32
2023-05-12T02:21:06.257Z,1.20
2023-05-12T02:23:34.325Z,0.70
2023-05-12T02:26:02.422Z,0.70
2023-05-12T02:28:30.510Z,0.50
2023-05-12T02:30:58.549Z,0.45
2023-05-12T02:33:26.871Z,0.80
2023-05-12T02:35:56.282Z,0.60
2023-05-12T02:38:24.285Z,0.70
2023-05-12T02:40:52.406Z,0.40
2023-05-12T02:43:20.494Z,0.55
2023-05-12T02:45:48.695Z,0.45
2023-05-12T02:48:16.829Z,0.77
2023-05-12T02:50:44.857Z,0.75
2023-05-12T02:53:14.279Z,0.50
2023-05-12T02:55:42.318Z,0.25
2023-05-12T02:58:10.454Z,0.73
2023-05-12T03:00:38.571Z,0.77
2023-05-12T03:03:06.789Z,0.40
2023-05-12T03:05:34.921Z,0.63
2023-05-12T03:08:03.206Z,0.88
2023-05-12T03:10:32.627Z,0.57
2023-05-12T03:13:00.619Z,0.75
2023-05-12T03:15:28.721Z,0.70
2023-05-12T03:17:56.725Z,1.00
2023-05-12T03:20:24.753Z,0.70
2023-05-12T03:22:53.088Z,0.52
2023-05-12T03:25:21.194Z,0.80
2023-05-12T03:27:50.837Z,0.90
2023-05-12T03:30:19.160Z,0.47
2023-05-12T03:32:47.710Z,0.63
2023-05-12T03:35:15.893Z,0.65
2023-05-12T03:37:44.037Z,0.65
2023-05-12T03:40:18.399Z,0.70
2023-05-12T03:42:46.955Z,0.60
2023-05-12T03:45:16.503Z,1.15
2023-05-12T03:47:44.701Z,0.47
2023-05-12T03:50:12.971Z,0.30
2023-05-12T03:52:41.690Z,0.70
2023-05-12T03:55:10.406Z,0.70
2023-05-12T03:57:38.743Z,1.00
2023-05-12T04:00:07.921Z,1.00
2023-05-12T04:02:37.420Z,0.70
2023-05-12T04:05:08.207Z,0.70
2023-05-12T04:07:36.379Z,0.90
2023-05-12T04:10:04.610Z,0.57
2023-05-12T04:12:32.831Z,0.38
2023-05-12T04:15:01.640Z,0.52
2023-05-12T04:17:29.806Z,0.65
2023-05-12T04:19:59.209Z,0.68
2023-05-12T04:22:27.309Z,0.70
2023-05-12T04:24:55.338Z,0.70
2023-05-12T04:27:23.360Z,0.80
2023-05-12T04:29:51.716Z,0.80
2023-05-12T04:32:19.851Z,1.00
2023-05-12T04:34:48.478Z,0.90
2023-05-12T04:37:18.033Z,0.80
2023-05-12T04:39:46.052Z,0.95
2023-05-12T04:42:14.137Z,0.45
2023-05-12T04:44:42.297Z,0.50
2023-05-12T04:47:10.277Z,0.65
2023-05-12T04:49:38.371Z,0.80
2023-05-12T04:52:07.265Z,0.50
2023-05-12T04:54:36.668Z,0.82
2023-05-12T04:57:05.210Z,0.55
2023-05-12T04:59:33.182Z,0.75
2023-05-12T05:02:01.258Z,0.90
2023-05-12T05:04:29.487Z,0.50
2023-05-12T05:06:57.517Z,0.70
2023-05-12T05:09:25.522Z,0.70
2023-05-12T05:11:54.943Z,0.80
2023-05-12T05:14:23.165Z,0.60
2023-05-12T05:16:51.259Z,0.40
2023-05-12T05:19:28.560Z,0.80
2023-05-12T05:22:07.021Z,0.45
2023-05-12T05:24:35.014Z,0.43
2023-05-12T05:27:13.991Z,0.70
2023-05-12T05:29:43.475Z,0.50
2023-05-12T05:32:11.573Z,0.52
2023-05-12T05:34:39.636Z,0.60
2023-05-12T05:37:07.737Z,0.45
2023-05-12T05:39:35.800Z,0.75
2023-05-12T05:42:03.920Z,0.80
2023-05-12T05:44:32.111Z,0.73
2023-05-12T05:47:03.132Z,0.60
2023-05-12T05:49:31.445Z,0.85
2023-05-12T05:51:59.507Z,0.60
2023-05-12T05:54:27.682Z,0.80
2023-05-12T05:56:56.120Z,0.30
2023-05-12T05:59:24.453Z,0.63
2023-05-12T06:01:52.684Z,0.80
2023-05-12T06:04:22.153Z,0.68
2023-05-12T06:06:50.367Z,0.80
2023-05-12T06:09:18.435Z,0.70
2023-05-12T06:11:46.756Z,0.85
2023-05-12T06:14:14.837Z,0.88
2023-05-12T06:16:42.920Z,0.60
2023-05-12T06:19:12.027Z,0.60
2023-05-12T06:21:41.508Z,0.63
2023-05-12T06:24:09.770Z,0.82
2023-05-12T06:26:38.518Z,0.82
2023-05-12T06:29:08.293Z,0.68
2023-05-12T06:31:36.583Z,0.70
2023-05-12T06:34:04.815Z,1.02
2023-05-12T06:36:33.390Z,0.88
2023-05-12T06:39:03.085Z,0.70
2023-05-12T06:41:31.615Z,0.80
2023-05-12T06:44:01.575Z,0.50
2023-05-12T06:46:29.978Z,0.68
2023-05-12T06:48:58.156Z,0.70
2023-05-12T06:51:26.206Z,0.90
2023-05-12T06:53:54.349Z,0.70
2023-05-12T06:56:24.189Z,0.65
2023-05-12T06:58:52.536Z,0.75
2023-05-12T07:01:20.652Z,0.75
2023-05-12T07:03:48.783Z,0.70
2023-05-12T07:06:17.086Z,1.00
2023-05-12T07:08:45.226Z,0.50
2023-05-12T07:11:13.408Z,0.80
2023-05-12T07:13:42.974Z,0.80
2023-05-12T07:16:11.229Z,0.82
2023-05-12T07:18:39.479Z,0.80
2023-05-12T07:21:07.846Z,1.00
2023-05-12T07:23:36.483Z,0.80
2023-05-12T07:26:05.812Z,0.88
2023-05-12T07:28:36.129Z,1.02
2023-05-12T07:31:07.361Z,0.90
2023-05-12T07:33:36.074Z,1.00
2023-05-12T07:36:05.830Z,0.80
2023-05-12T07:38:33.985Z,0.52
2023-05-12T07:41:02.553Z,0.85
2023-05-12T07:43:30.780Z,2.97
2023-05-12T07:46:00.984Z,0.60
2023-05-12T07:48:31.146Z,0.70
2023-05-12T07:50:59.292Z,0.93
2023-05-12T07:53:27.454Z,1.10
2023-05-12T07:55:55.840Z,0.80
2023-05-12T07:58:24.076Z,0.80
2023-05-12T08:00:54.520Z,0.90
2023-05-12T08:03:23.713Z,0.82
2023-05-12T08:05:53.882Z,0.80
2023-05-12T08:08:22.342Z,0.98
2023-05-12T08:10:51.406Z,0.75
2023-05-12T08:13:20.820Z,1.10
2023-05-12T08:15:51.212Z,0.93
2023-05-12T08:18:20.202Z,0.65
2023-05-12T08:20:51.125Z,0.90
2023-05-12T08:23:21.511Z,0.65
2023-05-12T08:25:51.238Z,0.80
2023-05-12T08:28:19.427Z,0.80
2023-05-12T08:30:47.722Z,0.82
2023-05-12T08:33:17.863Z,0.80
2023-05-12T08:35:46.314Z,1.10
2023-05-12T08:38:14.647Z,0.75
2023-05-12T08:40:51.660Z,0.80
2023-05-12T08:43:26.427Z,0.82
2023-05-12T08:45:57.687Z,1.02
2023-05-12T08:48:28.310Z,0.88
2023-05-12T08:50:56.763Z,0.80
2023-05-12T08:53:27.135Z,0.88
2023-05-12T08:57:09.368Z,0.90
2023-05-12T08:58:48.412Z,0.80
2023-05-12T09:01:18.277Z,1.20
2023-05-12T09:03:46.722Z,1.10
2023-05-12T09:06:15.170Z,1.17
2023-05-12T09:08:43.968Z,1.08
2023-05-12T09:11:14.317Z,1.30
2023-05-12T09:14:00.316Z,1.20
2023-05-12T09:16:32.723Z,1.10
2023-05-12T09:19:02.790Z,1.05
2023-05-12T09:21:32.484Z,1.00
2023-05-12T09:24:06.034Z,1.10
2023-05-12T09:26:47.401Z,1.10
2023-05-12T09:29:27.772Z,1.10
2023-05-12T09:32:01.847Z,1.10
2023-05-12T09:34:32.405Z,0.95
2023-05-12T09:37:02.205Z,1.17
2023-05-12T09:39:31.592Z,1.00
2023-05-12T09:42:01.645Z,1.10
2023-05-12T09:44:30.004Z,0.90
2023-05-12T09:47:07.464Z,1.00
2023-05-12T09:49:35.802Z,1.30
2023-05-12T09:52:06.289Z,1.20
2023-05-12T09:54:34.942Z,1.00
2023-05-12T09:57:05.942Z,1.20
2023-05-12T09:59:36.354Z,1.25
2023-05-12T10:02:09.961Z,1.20
2023-05-12T10:04:45.740Z,1.05
2023-05-12T10:07:15.777Z,0.93
2023-05-12T10:09:45.379Z,1.13
2023-05-12T10:12:16.537Z,1.25
2023-05-12T10:14:44.846Z,1.20
2023-05-12T10:17:14.506Z,1.30
2023-05-12T10:19:43.389Z,1.10
2023-05-12T10:22:12.356Z,1.40
2023-05-12T10:24:44.439Z,1.25
2023-05-12T10:27:15.968Z,1.33
2023-05-12T10:29:44.915Z,1.30
2023-05-12T10:32:13.326Z,1.20
2023-05-12T10:34:43.655Z,1.30
2023-05-12T10:37:12.467Z,1.50
2023-05-12T10:39:49.072Z,1.10
2023-05-12T10:42:25.588Z,1.48
2023-05-12T10:44:54.816Z,1.40
2023-05-12T10:47:27.889Z,1.23
2023-05-12T10:49:58.711Z,1.33
2023-05-12T10:52:26.939Z,1.48
2023-05-12T10:55:01.821Z,1.58
2023-05-12T10:57:33.266Z,1.50
2023-05-12T11:00:03.517Z,1.40
2023-05-12T11:02:35.522Z,1.20
2023-05-12T11:05:12.845Z,1.70
2023-05-12T11:07:41.927Z,1.20
2023-05-12T11:10:13.288Z,1.10
2023-05-12T11:12:44.948Z,1.40
2023-05-12T11:15:15.416Z,1.35
2023-05-12T11:17:44.722Z,1.50
2023-05-12T11:20:23.521Z,1.63
2023-05-12T11:22:52.381Z,1.40
2023-05-12T11:25:20.844Z,1.55
2023-05-12T11:27:51.560Z,1.50
2023-05-12T11:30:19.890Z,1.58
2023-05-12T11:32:48.454Z,1.60
2023-05-12T11:35:18.250Z,1.50
2023-05-12T11:37:47.116Z,1.70
2023-05-12T11:40:20.006Z,1.55
2023-05-12T11:42:52.299Z,1.80
2023-05-12T11:45:22.959Z,1.48
2023-05-12T11:47:51.295Z,1.75
2023-05-12T11:50:26.355Z,1.48
2023-05-12T11:52:56.055Z,1.40
2023-05-12T11:55:25.434Z,1.40
2023-05-12T11:58:00.072Z,1.48
2023-05-12T12:00:33.554Z,1.50
2023-05-12T12:03:13.161Z,1.30
2023-05-12T12:05:43.447Z,1.40
2023-05-12T12:08:14.555Z,1.38
2023-05-12T12:10:45.849Z,1.50
2023-05-12T12:13:21.598Z,1.05
2023-05-12T12:15:50.178Z,1.73
2023-05-12T12:18:18.973Z,1.30
2023-05-12T12:20:48.425Z,1.63
2023-05-12T12:23:17.007Z,1.35
2023-05-12T12:25:45.119Z,1.40
2023-05-12T12:28:15.050Z,1.80
2023-05-12T12:30:43.432Z,1.30
2023-05-12T12:33:11.643Z,1.70
2023-05-12T12:35:39.744Z,1.42
2023-05-12T12:38:08.898Z,1.60
2023-05-12T12:40:37.060Z,1.55
2023-05-12T12:43:05.157Z,1.60
2023-05-12T12:45:34.534Z,1.33
2023-05-12T12:48:02.719Z,1.50
2023-05-12T12:50:30.850Z,1.27
2023-05-12T12:52:58.965Z,1.27
2023-05-12T12:55:27.036Z,1.38
2023-05-12T12:57:55.119Z,1.40
2023-05-12T13:00:24.545Z,1.20
2023-05-12T13:02:54.168Z,1.20
2023-05-12T13:05:22.442Z,1.67
2023-05-12T13:07:51.662Z,1.40
2023-05-12T13:10:19.795Z,1.40
2023-05-12T13:12:47.873Z,1.08
2023-05-12T13:15:19.376Z,1.10
2023-05-12T13:17:47.685Z,1.27
2023-05-12T13:20:17.843Z,1.48
2023-05-12T13:22:46.225Z,0.90
2023-05-12T13:25:14.325Z,1.30
2023-05-12T13:27:42.438Z,1.15
2023-05-12T13:30:13.387Z,1.48
2023-05-12T13:32:42.165Z,1.15
2023-05-12T13:35:10.968Z,1.50
2023-05-12T13:37:40.375Z,1.75
2023-05-12T13:40:09.892Z,1.38
2023-05-12T13:42:38.359Z,1.30
2023-05-12T13:45:09.229Z,1.60
2023-05-12T13:47:37.895Z,1.60
2023-05-12T13:50:07.071Z,1.17
2023-05-12T13:52:35.201Z,1.80
2023-05-12T13:55:04.920Z,1.42
2023-05-12T13:57:33.206Z,1.67
2023-05-12T14:00:02.047Z,1.80
2023-05-12T14:02:30.301Z,1.80
2023-05-12T14:04:58.766Z,1.65
2023-05-12T14:07:27.043Z,1.40
2023-05-12T14:09:55.150Z,1.70
2023-05-12T14:12:24.943Z,1.80
2023-05-12T14:14:52.943Z,1.63
2023-05-12T14:17:20.963Z,1.30
2023-05-12T14:19:49.388Z,1.63
2023-05-12T14:22:25.343Z,1.25
2023-05-12T14:24:55.552Z,1.50
2023-05-12T14:27:25.333Z,1.23
2023-05-12T14:29:53.552Z,1.48
2023-05-12T14:32:22.290Z,1.38
2023-05-12T14:34:50.369Z,1.45
2023-05-12T14:37:18.486Z,1.42
2023-05-12T14:39:46.527Z,1.50
2023-05-12T14:42:14.576Z,2.33
2023-05-12T14:44:44.026Z,1.30
2023-05-12T14:47:12.158Z,1.40
2023-05-12T14:49:40.259Z,1.40
2023-05-12T14:52:08.318Z,1.63
2023-05-12T14:54:36.383Z,1.30
2023-05-12T14:57:05.368Z,1.48
2023-05-12T14:59:33.400Z,1.65
2023-05-12T15:02:02.871Z,1.55
2023-05-12T15:04:31.609Z,1.55
2023-05-12T15:06:59.597Z,1.63
2023-05-12T15:09:27.625Z,1.70
2023-05-12T15:11:56.462Z,2.00
2023-05-12T15:16:52.635Z,1.95
2023-05-12T15:19:22.176Z,2.17
2023-05-12T15:21:50.320Z,1.90
2023-05-12T15:24:18.522Z,1.80
2023-05-12T15:26:46.991Z,1.95
2023-05-12T15:29:14.945Z,1.80
2023-05-12T15:31:43.167Z,1.48
2023-05-12T15:34:11.627Z,1.60
2023-05-12T15:36:41.245Z,1.80
2023-05-12T15:39:09.440Z,1.80
2023-05-12T15:41:37.461Z,1.58
2023-05-12T15:44:06.320Z,1.40
2023-05-12T15:46:35.771Z,1.70
2023-05-12T15:49:04.053Z,1.60
2023-05-12T15:51:33.905Z,1.52
2023-05-12T15:54:03.473Z,1.58
2023-05-12T15:56:31.700Z,1.70
2023-05-12T15:58:59.863Z,1.70
2023-05-12T16:01:27.948Z,1.63
2023-05-12T16:03:56.178Z,1.50
2023-05-12T16:06:24.308Z,1.70
2023-05-12T16:08:53.288Z,1.65
2023-05-12T16:11:23.463Z,1.70
2023-05-12T16:13:53.390Z,1.58
2023-05-12T16:16:22.573Z,1.60
2023-05-12T16:18:50.786Z,1.60
2023-05-12T16:21:20.050Z,1.85
2023-05-12T16:23:48.114Z,1.30
2023-05-12T16:26:16.190Z,1.58
2023-05-12T16:28:46.375Z,1.48
2023-05-12T16:31:18.074Z,1.40
2023-05-12T16:33:46.467Z,1.52
2023-05-12T16:36:15.052Z,1.65
2023-05-12T16:38:43.809Z,1.48
2023-05-12T16:41:11.839Z,1.38
2023-05-12T16:43:39.932Z,1.30
2023-05-12T16:46:10.288Z,1.30
2023-05-12T16:48:38.531Z,1.33
2023-05-12T16:51:07.814Z,1.38
2023-05-12T16:53:36.494Z,1.20
2023-05-12T16:56:04.669Z,1.17
2023-05-12T16:58:33.070Z,1.10
2023-05-12T17:01:02.288Z,1.55
2023-05-12T17:03:32.878Z,1.05
2023-05-12T17:06:01.887Z,1.20
2023-05-12T17:08:29.992Z,1.40
2023-05-12T17:10:58.299Z,1.55
2023-05-12T17:13:26.387Z,1.55
2023-05-12T17:15:54.612Z,1.25
2023-05-12T17:18:24.725Z,1.10
2023-05-12T17:20:54.505Z,1.48
2023-05-12T17:23:23.106Z,1.30
2023-05-12T17:25:51.582Z,1.25
2023-05-12T17:28:21.136Z,1.27
2023-05-12T17:30:50.224Z,1.38
2023-05-12T17:33:18.519Z,1.20
2023-05-12T17:35:56.594Z,1.15
2023-05-12T17:38:36.612Z,1.30
2023-05-12T17:41:04.940Z,1.30
2023-05-12T17:43:33.284Z,1.33
2023-05-12T17:46:01.795Z,1.10
2023-05-12T17:48:33.136Z,1.08
2023-05-12T17:51:01.651Z,1.10
2023-05-12T17:53:29.886Z,1.10
2023-05-12T17:55:59.562Z,1.33
2023-05-12T17:58:27.942Z,1.17
2023-05-12T18:00:56.414Z,1.15
2023-05-12T18:03:24.846Z,1.25
2023-05-12T18:05:56.852Z,1.30
2023-05-12T18:08:30.732Z,1.30
2023-05-12T18:11:01.977Z,1.30
2023-05-12T18:13:31.235Z,1.25
2023-05-12T18:16:00.188Z,1.08
2023-05-12T18:18:31.220Z,1.10
2023-05-12T18:21:03.372Z,1.27
2023-05-12T18:23:35.092Z,1.10
2023-05-12T18:26:07.805Z,1.38
2023-05-12T18:28:40.914Z,1.10
2023-05-12T18:31:16.653Z,1.10
2023-05-12T18:33:50.553Z,1.00
2023-05-12T18:36:22.455Z,1.20
2023-05-12T18:38:51.316Z,1.00
2023-05-12T18:41:21.555Z,1.38
2023-05-12T18:43:50.504Z,1.23
2023-05-12T18:46:18.781Z,1.05
2023-05-12T18:48:47.027Z,1.10
2023-05-12T18:51:15.384Z,1.58
2023-05-12T18:53:45.312Z,1.10
2023-05-12T18:56:13.666Z,0.90
2023-05-12T18:58:47.051Z,1.20
2023-05-12T19:01:17.121Z,0.90
2023-05-12T19:03:45.395Z,1.25
2023-05-12T19:06:14.127Z,1.30
2023-05-12T19:08:42.349Z,1.08
2023-05-12T19:11:10.670Z,1.38
2023-05-12T19:13:42.729Z,1.08
2023-05-12T19:16:12.463Z,1.02
2023-05-12T19:18:40.845Z,1.27
2023-05-12T19:21:09.407Z,1.15
2023-05-12T19:23:37.637Z,1.15
2023-05-12T19:26:08.204Z,1.00
2023-05-12T19:28:36.309Z,1.25
2023-05-12T19:31:04.570Z,1.05
2023-05-12T19:33:35.619Z,1.27
2023-05-12T19:36:04.265Z,1.02
2023-05-12T19:38:32.426Z,1.25
2023-05-12T19:41:00.642Z,1.30
2023-05-12T19:43:28.976Z,1.10
2023-05-12T19:45:57.269Z,1.52
2023-05-12T19:48:25.419Z,1.10
2023-05-12T19:50:55.240Z,1.23
2023-05-12T19:53:23.502Z,1.50
2023-05-12T19:55:52.201Z,1.20
2023-05-12T19:58:20.596Z,1.10
2023-05-12T20:00:48.844Z,1.20
2023-05-12T20:03:17.220Z,1.02
2023-05-12T20:05:46.706Z,1.33
2023-05-12T20:08:17.977Z,1.33
2023-05-12T20:10:46.845Z,1.20
2023-05-12T20:13:15.005Z,1.00
2023-05-12T20:15:44.122Z,1.10
2023-05-12T20:18:14.672Z,1.00
2023-05-12T20:20:43.527Z,1.30
2023-05-12T20:23:11.717Z,1.38
2023-05-12T20:25:41.353Z,1.10
2023-05-12T20:28:11.718Z,1.30
2023-05-12T20:30:40.154Z,1.25
2023-05-12T20:33:08.355Z,1.42
2023-05-12T20:35:36.541Z,1.70
2023-05-12T20:38:04.782Z,1.20
2023-05-12T20:40:33.105Z,1.30
2023-05-12T20:43:02.679Z,1.75
2023-05-12T20:45:30.858Z,1.52
2023-05-12T20:47:59.218Z,1.23
2023-05-12T20:50:28.383Z,1.80
2023-05-12T20:52:56.737Z,1.13
2023-05-12T20:55:25.696Z,1.90
2023-05-12T20:57:53.909Z,1.90
2023-05-12T21:00:23.895Z,1.70
2023-05-12T21:02:52.889Z,1.98
2023-05-12T21:05:21.971Z,2.03
2023-05-12T21:07:50.380Z,1.95
2023-05-12T21:10:18.793Z,1.67
2023-05-12T21:12:46.979Z,2.25
2023-05-12T21:15:15.342Z,1.92
2023-05-12T21:17:44.954Z,1.77
2023-05-12T21:20:13.667Z,2.17
2023-05-12T21:22:41.928Z,1.48
2023-05-12T21:25:10.812Z,1.63
2023-05-12T21:27:40.772Z,2.00
2023-05-12T21:30:10.466Z,1.50
2023-05-12T21:32:39.450Z,1.88
2023-05-12T21:35:09.572Z,1.67
2023-05-12T21:37:38.064Z,1.92
2023-05-12T21:40:07.190Z,1.58
2023-05-12T21:42:36.177Z,1.45
2023-05-12T21:45:05.015Z,1.58
2023-05-12T21:47:33.386Z,1.90
2023-05-12T21:50:03.682Z,2.10
2023-05-12T21:52:33.315Z,1.55
2023-05-12T21:55:03.259Z,1.50
2023-05-12T21:57:31.392Z,1.38
2023-05-12T22:00:03.965Z,2.42
2023-05-12T22:02:33.842Z,1.85
2023-05-12T22:05:02.120Z,1.42
2023-05-12T22:07:30.317Z,1.60
2023-05-12T22:09:59.790Z,1.00
2023-05-12T22:12:28.187Z,1.27
2023-05-12T22:14:57.235Z,1.70
2023-05-12T22:17:25.517Z,1.30
2023-05-12T22:19:54.135Z,1.20
2023-05-12T22:22:22.272Z,1.35
2023-05-12T22:24:52.336Z,1.35
2023-05-12T22:27:23.505Z,1.15
2023-05-12T22:29:51.547Z,1.40
2023-05-12T22:32:19.668Z,1.23
2023-05-12T22:34:47.794Z,1.20
2023-05-12T22:37:15.994Z,1.10
2023-05-12T22:39:44.163Z,1.25
2023-05-12T22:42:12.306Z,1.15
2023-05-12T22:44:41.911Z,1.20
2023-05-12T22:47:10.170Z,1.40
2023-05-12T22:49:38.367Z,1.33
2023-05-12T22:52:07.124Z,1.02
2023-05-12T22:54:35.239Z,1.50
2023-05-12T22:57:03.266Z,1.30
2023-05-12T22:59:31.405Z,1.02
2023-05-12T23:02:00.865Z,1.40
2023-05-12T23:04:29.019Z,1.40
2023-05-12T23:06:57.054Z,1.35
2023-05-12T23:09:25.181Z,1.40
2023-05-12T23:11:53.357Z,1.20
2023-05-12T23:14:21.492Z,1.92
2023-05-12T23:16:49.674Z,1.90
2023-05-12T23:19:19.223Z,1.23
2023-05-12T23:21:47.387Z,1.13
2023-05-12T23:24:15.508Z,1.08
2023-05-12T23:26:43.606Z,0.77
2023-05-12T23:29:11.754Z,1.52
2023-05-12T23:31:39.897Z,1.20
2023-05-12T23:34:08.003Z,1.52
2023-05-12T23:36:37.400Z,1.35
2023-05-12T23:39:05.605Z,1.42
2023-05-12T23:41:36.248Z,1.33
2023-05-12T23:44:04.489Z,1.38
2023-05-12T23:46:32.652Z,2.00
2023-05-12T23:49:01.366Z,1.73
2023-05-12T23:51:29.410Z,1.27
2023-05-12T23:53:58.970Z,1.15
2023-05-12T23:56:27.123Z,1.30
2023-05-12T23:58:55.471Z,1.48
